sensor_id;sensor_type;location;lat;lon;timestamp;P1;durP1;ratioP1;P2;durP2;ratioP2
46653;SDS011;38960;51.074;17.004;2023-05-10T00:00:13;16.27;;;14.45;;
46653;SDS011;38960;51.074;17.004;2023-05-10T00:02:39;16.52;;;15.18;;
46653;SDS011;38960;51.074;17.004;2023-05-10T00:05:05;15.98;;;14.45;;
46653;SDS011;38960;51.074;17.004;2023-05-10T00:07:31;15.43;;;14.15;;
46653;SDS011;38960;51.074;17.004;2023-05-10T00:09:57;17.80;;;15.95;;
46653;SDS011;38960;51.074;17.004;2023-05-10T00:12:23;15.90;;;14.60;;
46653;SDS011;38960;51.074;17.004;2023-05-10T00:14:48;15.90;;;14.52;;
46653;SDS011;38960;51.074;17.004;2023-05-10T00:17:14;16.20;;;14.85;;
46653;SDS011;38960;51.074;17.004;2023-05-10T00:19:39;18.85;;;15.95;;
46653;SDS011;38960;51.074;17.004;2023-05-10T00:22:05;16.50;;;15.10;;
46653;SDS011;38960;51.074;17.004;2023-05-10T00:24:30;16.23;;;14.65;;
46653;SDS011;38960;51.074;17.004;2023-05-10T00:26:56;16.25;;;14.98;;
46653;SDS011;38960;51.074;17.004;2023-05-10T00:29:21;18.13;;;16.50;;
46653;SDS011;38960;51.074;17.004;2023-05-10T00:31:47;15.88;;;14.38;;
46653;SDS011;38960;51.074;17.004;2023-05-10T00:34:13;17.08;;;15.43;;
46653;SDS011;38960;51.074;17.004;2023-05-10T00:36:38;16.98;;;15.35;;
46653;SDS011;38960;51.074;17.004;2023-05-10T00:39:05;17.13;;;15.63;;
46653;SDS011;38960;51.074;17.004;2023-05-10T00:41:31;16.15;;;14.57;;
46653;SDS011;38960;51.074;17.004;2023-05-10T00:44:00;15.82;;;14.50;;
46653;SDS011;38960;51.074;17.004;2023-05-10T00:46:27;16.35;;;14.65;;
46653;SDS011;38960;51.074;17.004;2023-05-10T00:48:53;17.30;;;15.57;;
46653;SDS011;38960;51.074;17.004;2023-05-10T00:51:19;17.42;;;15.93;;
46653;SDS011;38960;51.074;17.004;2023-05-10T00:53:45;16.75;;;15.05;;
46653;SDS011;38960;51.074;17.004;2023-05-10T00:56:11;16.90;;;15.20;;
46653;SDS011;38960;51.074;17.004;2023-05-10T00:58:37;17.70;;;16.00;;
46653;SDS011;38960;51.074;17.004;2023-05-10T01:01:04;16.35;;;14.95;;
46653;SDS011;38960;51.074;17.004;2023-05-10T01:03:29;18.45;;;15.57;;
46653;SDS011;38960;51.074;17.004;2023-05-10T01:05:56;17.58;;;15.70;;
46653;SDS011;38960;51.074;17.004;2023-05-10T01:08:21;17.63;;;16.00;;
46653;SDS011;38960;51.074;17.004;2023-05-10T01:10:47;17.30;;;15.60;;
46653;SDS011;38960;51.074;17.004;2023-05-10T01:13:16;16.73;;;15.02;;
46653;SDS011;38960;51.074;17.004;2023-05-10T01:15:51;18.65;;;16.70;;
46653;SDS011;38960;51.074;17.004;2023-05-10T01:18:17;17.95;;;15.95;;
46653;SDS011;38960;51.074;17.004;2023-05-10T01:20:45;17.48;;;15.98;;
46653;SDS011;38960;51.074;17.004;2023-05-10T01:23:23;18.25;;;16.35;;
46653;SDS011;38960;51.074;17.004;2023-05-10T01:33:59;17.35;;;15.52;;
46653;SDS011;38960;51.074;17.004;2023-05-10T01:36:32;16.75;;;15.35;;
46653;SDS011;38960;51.074;17.004;2023-05-10T01:41:54;18.42;;;15.27;;
46653;SDS011;38960;51.074;17.004;2023-05-10T01:47:00;21.95;;;15.00;;
46653;SDS011;38960;51.074;17.004;2023-05-10T01:49:31;17.50;;;15.90;;
46653;SDS011;38960;51.074;17.004;2023-05-10T01:52:04;20.85;;;15.10;;
46653;SDS011;38960;51.074;17.004;2023-05-10T01:54:32;18.60;;;16.77;;
46653;SDS011;38960;51.074;17.004;2023-05-10T01:57:03;17.98;;;16.27;;
46653;SDS011;38960;51.074;17.004;2023-05-10T01:59:31;18.73;;;16.45;;
46653;SDS011;38960;51.074;17.004;2023-05-10T02:02:05;19.23;;;17.52;;
46653;SDS011;38960;51.074;17.004;2023-05-10T02:04:32;17.17;;;15.45;;
46653;SDS011;38960;51.074;17.004;2023-05-10T02:07:00;17.25;;;15.65;;
46653;SDS011;38960;51.074;17.004;2023-05-10T02:09:26;18.05;;;16.23;;
46653;SDS011;38960;51.074;17.004;2023-05-10T02:11:53;17.27;;;15.65;;
46653;SDS011;38960;51.074;17.004;2023-05-10T02:14:19;15.88;;;14.48;;
46653;SDS011;38960;51.074;17.004;2023-05-10T02:16:45;18.98;;;17.27;;
46653;SDS011;38960;51.074;17.004;2023-05-10T02:19:11;17.23;;;15.50;;
46653;SDS011;38960;51.074;17.004;2023-05-10T02:21:37;16.35;;;14.75;;
46653;SDS011;38960;51.074;17.004;2023-05-10T02:24:05;18.23;;;16.52;;
46653;SDS011;38960;51.074;17.004;2023-05-10T02:26:31;20.00;;;18.20;;
46653;SDS011;38960;51.074;17.004;2023-05-10T02:28:57;18.08;;;16.25;;
46653;SDS011;38960;51.074;17.004;2023-05-10T02:31:23;17.40;;;15.90;;
46653;SDS011;38960;51.074;17.004;2023-05-10T02:33:49;16.60;;;15.20;;
46653;SDS011;38960;51.074;17.004;2023-05-10T02:36:17;17.13;;;15.38;;
46653;SDS011;38960;51.074;17.004;2023-05-10T02:38:43;18.38;;;16.65;;
46653;SDS011;38960;51.074;17.004;2023-05-10T02:41:09;23.15;;;17.33;;
46653;SDS011;38960;51.074;17.004;2023-05-10T02:43:35;19.58;;;16.55;;
46653;SDS011;38960;51.074;17.004;2023-05-10T02:46:02;18.00;;;16.40;;
46653;SDS011;38960;51.074;17.004;2023-05-10T02:48:28;19.23;;;17.30;;
46653;SDS011;38960;51.074;17.004;2023-05-10T02:50:55;17.52;;;15.73;;
46653;SDS011;38960;51.074;17.004;2023-05-10T02:53:30;17.55;;;15.85;;
46653;SDS011;38960;51.074;17.004;2023-05-10T02:55:57;18.85;;;17.08;;
46653;SDS011;38960;51.074;17.004;2023-05-10T02:58:25;20.33;;;16.83;;
46653;SDS011;38960;51.074;17.004;2023-05-10T03:00:50;18.50;;;16.67;;
46653;SDS011;38960;51.074;17.004;2023-05-10T03:03:16;18.52;;;16.60;;
46653;SDS011;38960;51.074;17.004;2023-05-10T03:05:41;20.15;;;16.52;;
46653;SDS011;38960;51.074;17.004;2023-05-10T03:08:07;17.75;;;16.15;;
46653;SDS011;38960;51.074;17.004;2023-05-10T03:10:33;19.25;;;17.27;;
46653;SDS011;38960;51.074;17.004;2023-05-10T03:15:37;18.70;;;16.80;;
46653;SDS011;38960;51.074;17.004;2023-05-10T03:18:28;19.05;;;17.13;;
46653;SDS011;38960;51.074;17.004;2023-05-10T03:20:56;18.30;;;16.75;;
46653;SDS011;38960;51.074;17.004;2023-05-10T03:25:52;19.55;;;17.65;;
46653;SDS011;38960;51.074;17.004;2023-05-10T03:28:18;18.88;;;17.35;;
46653;SDS011;38960;51.074;17.004;2023-05-10T03:30:46;18.88;;;17.38;;
46653;SDS011;38960;51.074;17.004;2023-05-10T03:33:12;18.75;;;17.05;;
46653;SDS011;38960;51.074;17.004;2023-05-10T03:35:41;20.10;;;18.15;;
46653;SDS011;38960;51.074;17.004;2023-05-10T03:38:07;19.23;;;17.63;;
46653;SDS011;38960;51.074;17.004;2023-05-10T03:40:32;18.30;;;16.60;;
46653;SDS011;38960;51.074;17.004;2023-05-10T03:42:58;20.25;;;16.83;;
46653;SDS011;38960;51.074;17.004;2023-05-10T03:45:25;19.90;;;15.68;;
46653;SDS011;38960;51.074;17.004;2023-05-10T03:47:50;17.35;;;15.75;;
46653;SDS011;38960;51.074;17.004;2023-05-10T03:50:16;18.60;;;16.90;;
46653;SDS011;38960;51.074;17.004;2023-05-10T03:52:42;19.42;;;17.55;;
46653;SDS011;38960;51.074;17.004;2023-05-10T03:55:08;19.10;;;17.17;;
46653;SDS011;38960;51.074;17.004;2023-05-10T03:57:34;18.92;;;16.88;;
46653;SDS011;38960;51.074;17.004;2023-05-10T03:59:59;19.38;;;17.55;;
46653;SDS011;38960;51.074;17.004;2023-05-10T04:02:25;18.73;;;16.92;;
46653;SDS011;38960;51.074;17.004;2023-05-10T04:04:51;19.15;;;17.45;;
46653;SDS011;38960;51.074;17.004;2023-05-10T04:07:16;19.25;;;17.00;;
46653;SDS011;38960;51.074;17.004;2023-05-10T04:09:43;18.25;;;16.45;;
46653;SDS011;38960;51.074;17.004;2023-05-10T04:12:08;18.92;;;16.95;;
46653;SDS011;38960;51.074;17.004;2023-05-10T04:14:34;19.15;;;17.50;;
46653;SDS011;38960;51.074;17.004;2023-05-10T04:16:59;19.10;;;17.23;;
46653;SDS011;38960;51.074;17.004;2023-05-10T04:19:28;19.60;;;17.70;;
46653;SDS011;38960;51.074;17.004;2023-05-10T04:21:55;23.48;;;16.58;;
46653;SDS011;38960;51.074;17.004;2023-05-10T04:24:20;20.10;;;18.05;;
46653;SDS011;38960;51.074;17.004;2023-05-10T04:26:46;22.85;;;18.17;;
46653;SDS011;38960;51.074;17.004;2023-05-10T04:29:11;19.67;;;17.95;;
46653;SDS011;38960;51.074;17.004;2023-05-10T04:31:37;19.48;;;17.15;;
46653;SDS011;38960;51.074;17.004;2023-05-10T04:34:02;21.15;;;18.90;;
46653;SDS011;38960;51.074;17.004;2023-05-10T04:36:28;21.50;;;17.83;;
46653;SDS011;38960;51.074;17.004;2023-05-10T04:38:54;19.70;;;17.85;;
46653;SDS011;38960;51.074;17.004;2023-05-10T04:41:19;19.58;;;17.58;;
46653;SDS011;38960;51.074;17.004;2023-05-10T04:43:45;20.20;;;18.27;;
46653;SDS011;38960;51.074;17.004;2023-05-10T04:46:11;21.25;;;18.42;;
46653;SDS011;38960;51.074;17.004;2023-05-10T04:48:37;18.90;;;17.27;;
46653;SDS011;38960;51.074;17.004;2023-05-10T04:51:02;19.73;;;17.92;;
46653;SDS011;38960;51.074;17.004;2023-05-10T04:53:29;20.20;;;18.27;;
46653;SDS011;38960;51.074;17.004;2023-05-10T04:55:54;20.10;;;18.02;;
46653;SDS011;38960;51.074;17.004;2023-05-10T04:58:20;19.55;;;17.75;;
46653;SDS011;38960;51.074;17.004;2023-05-10T05:00:46;20.00;;;16.58;;
46653;SDS011;38960;51.074;17.004;2023-05-10T05:03:11;18.88;;;16.83;;
46653;SDS011;38960;51.074;17.004;2023-05-10T05:05:37;17.98;;;16.27;;
46653;SDS011;38960;51.074;17.004;2023-05-10T05:08:02;20.98;;;16.52;;
46653;SDS011;38960;51.074;17.004;2023-05-10T05:10:28;19.88;;;17.65;;
46653;SDS011;38960;51.074;17.004;2023-05-10T05:12:55;19.38;;;17.42;;
46653;SDS011;38960;51.074;17.004;2023-05-10T05:15:20;20.02;;;16.92;;
46653;SDS011;38960;51.074;17.004;2023-05-10T05:17:46;18.70;;;16.27;;
46653;SDS011;38960;51.074;17.004;2023-05-10T05:20:12;18.63;;;17.02;;
46653;SDS011;38960;51.074;17.004;2023-05-10T05:22:38;19.23;;;16.38;;
46653;SDS011;38960;51.074;17.004;2023-05-10T05:25:04;17.55;;;16.08;;
46653;SDS011;38960;51.074;17.004;2023-05-10T05:27:30;18.25;;;16.52;;
46653;SDS011;38960;51.074;17.004;2023-05-10T05:29:56;18.85;;;16.67;;
46653;SDS011;38960;51.074;17.004;2023-05-10T05:32:22;19.08;;;17.38;;
46653;SDS011;38960;51.074;17.004;2023-05-10T05:34:48;19.52;;;17.65;;
46653;SDS011;38960;51.074;17.004;2023-05-10T05:37:14;18.52;;;17.02;;
46653;SDS011;38960;51.074;17.004;2023-05-10T05:39:41;18.23;;;16.65;;
46653;SDS011;38960;51.074;17.004;2023-05-10T05:42:07;19.10;;;17.50;;
46653;SDS011;38960;51.074;17.004;2023-05-10T05:44:34;18.85;;;17.35;;
46653;SDS011;38960;51.074;17.004;2023-05-10T05:46:59;19.15;;;17.50;;
46653;SDS011;38960;51.074;17.004;2023-05-10T05:49:25;18.23;;;16.58;;
46653;SDS011;38960;51.074;17.004;2023-05-10T05:51:50;17.67;;;16.15;;
46653;SDS011;38960;51.074;17.004;2023-05-10T05:54:16;18.48;;;16.88;;
46653;SDS011;38960;51.074;17.004;2023-05-10T05:56:41;17.67;;;16.40;;
46653;SDS011;38960;51.074;17.004;2023-05-10T05:59:07;18.27;;;16.77;;
46653;SDS011;38960;51.074;17.004;2023-05-10T06:01:33;17.85;;;15.90;;
46653;SDS011;38960;51.074;17.004;2023-05-10T06:03:58;17.75;;;16.23;;
46653;SDS011;38960;51.074;17.004;2023-05-10T06:06:24;18.15;;;16.33;;
46653;SDS011;38960;51.074;17.004;2023-05-10T06:08:49;17.90;;;16.38;;
46653;SDS011;38960;51.074;17.004;2023-05-10T06:11:15;17.77;;;16.25;;
46653;SDS011;38960;51.074;17.004;2023-05-10T06:13:40;18.35;;;16.63;;
46653;SDS011;38960;51.074;17.004;2023-05-10T06:16:07;18.63;;;17.08;;
46653;SDS011;38960;51.074;17.004;2023-05-10T06:18:33;17.35;;;15.98;;
46653;SDS011;38960;51.074;17.004;2023-05-10T06:20:58;17.60;;;16.30;;
46653;SDS011;38960;51.074;17.004;2023-05-10T06:23:24;18.30;;;16.98;;
46653;SDS011;38960;51.074;17.004;2023-05-10T06:25:50;17.42;;;16.15;;
46653;SDS011;38960;51.074;17.004;2023-05-10T06:28:16;17.95;;;16.42;;
46653;SDS011;38960;51.074;17.004;2023-05-10T06:30:42;19.20;;;17.55;;
46653;SDS011;38960;51.074;17.004;2023-05-10T06:33:07;19.05;;;17.52;;
46653;SDS011;38960;51.074;17.004;2023-05-10T06:35:33;19.50;;;18.00;;
46653;SDS011;38960;51.074;17.004;2023-05-10T06:37:59;18.50;;;17.13;;
46653;SDS011;38960;51.074;17.004;2023-05-10T06:40:24;18.02;;;16.45;;
46653;SDS011;38960;51.074;17.004;2023-05-10T06:42:50;17.42;;;16.15;;
46653;SDS011;38960;51.074;17.004;2023-05-10T06:45:16;16.58;;;15.40;;
46653;SDS011;38960;51.074;17.004;2023-05-10T06:47:42;17.17;;;15.95;;
46653;SDS011;38960;51.074;17.004;2023-05-10T06:50:08;18.27;;;16.60;;
46653;SDS011;38960;51.074;17.004;2023-05-10T06:52:34;17.40;;;16.08;;
46653;SDS011;38960;51.074;17.004;2023-05-10T06:54:59;17.13;;;15.48;;
46653;SDS011;38960;51.074;17.004;2023-05-10T06:57:25;16.63;;;15.45;;
46653;SDS011;38960;51.074;17.004;2023-05-10T06:59:51;16.63;;;15.25;;
46653;SDS011;38960;51.074;17.004;2023-05-10T07:02:17;17.05;;;15.68;;
46653;SDS011;38960;51.074;17.004;2023-05-10T07:04:43;16.38;;;15.07;;
46653;SDS011;38960;51.074;17.004;2023-05-10T07:07:08;19.95;;;18.40;;
46653;SDS011;38960;51.074;17.004;2023-05-10T07:09:34;15.68;;;14.60;;
46653;SDS011;38960;51.074;17.004;2023-05-10T07:12:00;16.88;;;15.48;;
46653;SDS011;38960;51.074;17.004;2023-05-10T07:14:27;15.75;;;14.45;;
46653;SDS011;38960;51.074;17.004;2023-05-10T07:16:53;16.85;;;15.63;;
46653;SDS011;38960;51.074;17.004;2023-05-10T07:19:18;15.98;;;14.77;;
46653;SDS011;38960;51.074;17.004;2023-05-10T07:21:44;24.15;;;14.93;;
46653;SDS011;38960;51.074;17.004;2023-05-10T07:24:10;16.92;;;15.70;;
46653;SDS011;38960;51.074;17.004;2023-05-10T07:26:35;16.33;;;15.23;;
46653;SDS011;38960;51.074;17.004;2023-05-10T07:29:01;17.00;;;15.70;;
46653;SDS011;38960;51.074;17.004;2023-05-10T07:31:27;17.25;;;15.85;;
46653;SDS011;38960;51.074;17.004;2023-05-10T07:33:53;17.20;;;15.90;;
46653;SDS011;38960;51.074;17.004;2023-05-10T07:36:18;18.23;;;16.63;;
46653;SDS011;38960;51.074;17.004;2023-05-10T07:38:44;16.65;;;15.65;;
46653;SDS011;38960;51.074;17.004;2023-05-10T07:41:11;17.65;;;16.15;;
46653;SDS011;38960;51.074;17.004;2023-05-10T07:43:37;16.60;;;15.37;;
46653;SDS011;38960;51.074;17.004;2023-05-10T07:46:02;17.58;;;16.08;;
46653;SDS011;38960;51.074;17.004;2023-05-10T07:48:28;16.95;;;15.85;;
46653;SDS011;38960;51.074;17.004;2023-05-10T07:50:53;16.83;;;15.75;;
46653;SDS011;38960;51.074;17.004;2023-05-10T07:53:19;18.30;;;16.73;;
46653;SDS011;38960;51.074;17.004;2023-05-10T07:55:49;18.50;;;16.90;;
46653;SDS011;38960;51.074;17.004;2023-05-10T07:58:15;17.25;;;16.23;;
46653;SDS011;38960;51.074;17.004;2023-05-10T08:00:41;18.13;;;16.67;;
46653;SDS011;38960;51.074;17.004;2023-05-10T08:03:06;17.70;;;16.42;;
46653;SDS011;38960;51.074;17.004;2023-05-10T08:05:32;17.05;;;16.00;;
46653;SDS011;38960;51.074;17.004;2023-05-10T08:07:57;17.98;;;16.77;;
46653;SDS011;38960;51.074;17.004;2023-05-10T08:10:24;16.63;;;15.57;;
46653;SDS011;38960;51.074;17.004;2023-05-10T08:12:50;17.65;;;16.42;;
46653;SDS011;38960;51.074;17.004;2023-05-10T08:15:16;17.00;;;15.98;;
46653;SDS011;38960;51.074;17.004;2023-05-10T08:17:42;18.00;;;16.42;;
46653;SDS011;38960;51.074;17.004;2023-05-10T08:20:08;16.85;;;15.55;;
46653;SDS011;38960;51.074;17.004;2023-05-10T08:22:34;16.38;;;15.07;;
46653;SDS011;38960;51.074;17.004;2023-05-10T08:24:59;16.48;;;15.32;;
46653;SDS011;38960;51.074;17.004;2023-05-10T08:27:25;17.17;;;16.10;;
46653;SDS011;38960;51.074;17.004;2023-05-10T08:29:50;16.00;;;14.90;;
46653;SDS011;38960;51.074;17.004;2023-05-10T08:32:16;16.20;;;14.90;;
46653;SDS011;38960;51.074;17.004;2023-05-10T08:34:42;17.15;;;15.52;;
46653;SDS011;38960;51.074;17.004;2023-05-10T08:37:08;16.48;;;15.02;;
46653;SDS011;38960;51.074;17.004;2023-05-10T08:39:36;15.55;;;14.65;;
46653;SDS011;38960;51.074;17.004;2023-05-10T08:42:03;15.30;;;14.23;;
46653;SDS011;38960;51.074;17.004;2023-05-10T08:44:33;15.53;;;14.23;;
46653;SDS011;38960;51.074;17.004;2023-05-10T08:47:02;16.30;;;14.77;;
46653;SDS011;38960;51.074;17.004;2023-05-10T08:49:31;15.45;;;14.20;;
46653;SDS011;38960;51.074;17.004;2023-05-10T08:51:57;13.73;;;12.82;;
46653;SDS011;38960;51.074;17.004;2023-05-10T08:54:25;14.82;;;13.82;;
46653;SDS011;38960;51.074;17.004;2023-05-10T08:56:50;15.25;;;14.18;;
46653;SDS011;38960;51.074;17.004;2023-05-10T08:59:18;14.02;;;13.23;;
46653;SDS011;38960;51.074;17.004;2023-05-10T09:01:44;15.50;;;14.40;;
46653;SDS011;38960;51.074;17.004;2023-05-10T09:04:10;15.35;;;14.23;;
46653;SDS011;38960;51.074;17.004;2023-05-10T09:06:37;15.88;;;14.77;;
46653;SDS011;38960;51.074;17.004;2023-05-10T09:09:02;16.25;;;15.10;;
46653;SDS011;38960;51.074;17.004;2023-05-10T09:11:28;16.27;;;15.25;;
46653;SDS011;38960;51.074;17.004;2023-05-10T09:13:55;16.40;;;15.20;;
46653;SDS011;38960;51.074;17.004;2023-05-10T09:16:21;16.75;;;15.35;;
46653;SDS011;38960;51.074;17.004;2023-05-10T09:18:47;16.55;;;15.45;;
46653;SDS011;38960;51.074;17.004;2023-05-10T09:21:14;16.27;;;15.27;;
46653;SDS011;38960;51.074;17.004;2023-05-10T09:23:44;18.17;;;15.35;;
46653;SDS011;38960;51.074;17.004;2023-05-10T09:26:11;16.73;;;15.63;;
46653;SDS011;38960;51.074;17.004;2023-05-10T09:28:57;16.85;;;15.75;;
46653;SDS011;38960;51.074;17.004;2023-05-10T09:31:24;16.40;;;15.30;;
46653;SDS011;38960;51.074;17.004;2023-05-10T09:33:52;15.38;;;14.48;;
46653;SDS011;38960;51.074;17.004;2023-05-10T09:36:18;16.27;;;15.27;;
46653;SDS011;38960;51.074;17.004;2023-05-10T09:41:20;14.80;;;13.63;;
46653;SDS011;38960;51.074;17.004;2023-05-10T09:43:46;16.30;;;14.73;;
46653;SDS011;38960;51.074;17.004;2023-05-10T09:46:12;15.00;;;13.90;;
46653;SDS011;38960;51.074;17.004;2023-05-10T09:48:45;15.20;;;14.13;;
46653;SDS011;38960;51.074;17.004;2023-05-10T09:51:32;14.45;;;13.45;;
46653;SDS011;38960;51.074;17.004;2023-05-10T09:54:08;14.65;;;13.52;;
46653;SDS011;38960;51.074;17.004;2023-05-10T09:56:37;14.90;;;13.53;;
46653;SDS011;38960;51.074;17.004;2023-05-10T09:59:05;15.00;;;14.10;;
46653;SDS011;38960;51.074;17.004;2023-05-10T10:01:32;12.80;;;11.80;;
46653;SDS011;38960;51.074;17.004;2023-05-10T10:04:02;15.52;;;14.10;;
46653;SDS011;38960;51.074;17.004;2023-05-10T10:06:35;14.27;;;13.07;;
46653;SDS011;38960;51.074;17.004;2023-05-10T10:09:04;14.75;;;13.45;;
46653;SDS011;38960;51.074;17.004;2023-05-10T10:11:36;14.63;;;13.35;;
46653;SDS011;38960;51.074;17.004;2023-05-10T10:14:02;15.02;;;13.80;;
46653;SDS011;38960;51.074;17.004;2023-05-10T10:16:31;14.65;;;13.48;;
46653;SDS011;38960;51.074;17.004;2023-05-10T10:18:58;14.85;;;13.85;;
46653;SDS011;38960;51.074;17.004;2023-05-10T10:21:23;15.05;;;13.82;;
46653;SDS011;38960;51.074;17.004;2023-05-10T10:23:49;15.82;;;14.20;;
46653;SDS011;38960;51.074;17.004;2023-05-10T10:26:15;14.05;;;13.25;;
46653;SDS011;38960;51.074;17.004;2023-05-10T10:31:40;14.82;;;13.60;;
46653;SDS011;38960;51.074;17.004;2023-05-10T10:34:11;13.90;;;13.00;;
46653;SDS011;38960;51.074;17.004;2023-05-10T10:36:47;14.30;;;13.40;;
46653;SDS011;38960;51.074;17.004;2023-05-10T10:39:13;15.77;;;14.43;;
46653;SDS011;38960;51.074;17.004;2023-05-10T10:41:40;14.82;;;13.70;;
46653;SDS011;38960;51.074;17.004;2023-05-10T10:57:32;13.93;;;13.02;;
46653;SDS011;38960;51.074;17.004;2023-05-10T11:02:47;14.07;;;13.02;;
46653;SDS011;38960;51.074;17.004;2023-05-10T11:07:56;14.35;;;12.88;;
46653;SDS011;38960;51.074;17.004;2023-05-10T11:10:23;15.15;;;13.15;;
46653;SDS011;38960;51.074;17.004;2023-05-10T11:12:59;14.13;;;12.88;;
46653;SDS011;38960;51.074;17.004;2023-05-10T11:15:32;13.90;;;12.88;;
46653;SDS011;38960;51.074;17.004;2023-05-10T11:17:59;13.95;;;13.02;;
46653;SDS011;38960;51.074;17.004;2023-05-10T11:20:32;14.80;;;13.25;;
46653;SDS011;38960;51.074;17.004;2023-05-10T11:23:11;13.20;;;12.40;;
46653;SDS011;38960;51.074;17.004;2023-05-10T11:25:41;13.70;;;12.70;;
46653;SDS011;38960;51.074;17.004;2023-05-10T11:28:08;12.85;;;12.02;;
46653;SDS011;38960;51.074;17.004;2023-05-10T11:30:34;10.48;;;7.68;;
46653;SDS011;38960;51.074;17.004;2023-05-10T11:32:59;13.07;;;11.82;;
46653;SDS011;38960;51.074;17.004;2023-05-10T11:35:27;12.90;;;11.70;;
46653;SDS011;38960;51.074;17.004;2023-05-10T11:37:52;12.80;;;11.90;;
46653;SDS011;38960;51.074;17.004;2023-05-10T11:40:18;13.15;;;11.93;;
46653;SDS011;38960;51.074;17.004;2023-05-10T11:42:44;13.63;;;12.50;;
46653;SDS011;38960;51.074;17.004;2023-05-10T11:45:10;13.93;;;12.48;;
46653;SDS011;38960;51.074;17.004;2023-05-10T11:47:36;12.38;;;11.48;;
46653;SDS011;38960;51.074;17.004;2023-05-10T11:50:02;14.32;;;13.18;;
46653;SDS011;38960;51.074;17.004;2023-05-10T11:52:28;12.60;;;11.60;;
46653;SDS011;38960;51.074;17.004;2023-05-10T11:54:54;13.70;;;12.30;;
46653;SDS011;38960;51.074;17.004;2023-05-10T11:57:20;14.02;;;12.70;;
46653;SDS011;38960;51.074;17.004;2023-05-10T11:59:53;12.68;;;11.63;;
46653;SDS011;38960;51.074;17.004;2023-05-10T12:02:22;13.60;;;12.57;;
46653;SDS011;38960;51.074;17.004;2023-05-10T12:04:48;12.13;;;11.40;;
46653;SDS011;38960;51.074;17.004;2023-05-10T12:07:14;13.02;;;12.07;;
46653;SDS011;38960;51.074;17.004;2023-05-10T12:09:43;13.40;;;12.60;;
46653;SDS011;38960;51.074;17.004;2023-05-10T12:12:10;13.25;;;12.25;;
46653;SDS011;38960;51.074;17.004;2023-05-10T12:14:40;13.23;;;12.10;;
46653;SDS011;38960;51.074;17.004;2023-05-10T12:17:06;13.10;;;12.10;;
46653;SDS011;38960;51.074;17.004;2023-05-10T12:19:38;14.15;;;13.15;;
46653;SDS011;38960;51.074;17.004;2023-05-10T12:22:04;13.80;;;12.70;;
46653;SDS011;38960;51.074;17.004;2023-05-10T12:24:30;13.88;;;12.88;;
46653;SDS011;38960;51.074;17.004;2023-05-10T12:26:59;20.23;;;13.35;;
46653;SDS011;38960;51.074;17.004;2023-05-10T12:29:25;13.75;;;12.52;;
46653;SDS011;38960;51.074;17.004;2023-05-10T12:34:33;13.85;;;12.73;;
46653;SDS011;38960;51.074;17.004;2023-05-10T12:37:01;13.43;;;12.52;;
46653;SDS011;38960;51.074;17.004;2023-05-10T12:39:40;13.07;;;12.05;;
46653;SDS011;38960;51.074;17.004;2023-05-10T12:42:06;14.05;;;12.82;;
46653;SDS011;38960;51.074;17.004;2023-05-10T12:44:31;11.98;;;11.27;;
46653;SDS011;38960;51.074;17.004;2023-05-10T12:46:57;12.68;;;11.77;;
46653;SDS011;38960;51.074;17.004;2023-05-10T12:49:22;13.35;;;12.55;;
46653;SDS011;38960;51.074;17.004;2023-05-10T12:51:48;14.00;;;12.63;;
46653;SDS011;38960;51.074;17.004;2023-05-10T12:54:13;13.32;;;12.13;;
46653;SDS011;38960;51.074;17.004;2023-05-10T12:56:39;13.05;;;12.15;;
46653;SDS011;38960;51.074;17.004;2023-05-10T12:59:05;13.50;;;12.70;;
46653;SDS011;38960;51.074;17.004;2023-05-10T13:01:31;12.98;;;12.07;;
46653;SDS011;38960;51.074;17.004;2023-05-10T13:03:57;12.23;;;11.52;;
46653;SDS011;38960;51.074;17.004;2023-05-10T13:06:23;13.52;;;12.48;;
46653;SDS011;38960;51.074;17.004;2023-05-10T13:08:48;13.02;;;12.23;;
46653;SDS011;38960;51.074;17.004;2023-05-10T13:11:14;15.05;;;13.88;;
46653;SDS011;38960;51.074;17.004;2023-05-10T13:13:42;13.18;;;12.35;;
46653;SDS011;38960;51.074;17.004;2023-05-10T13:16:07;13.50;;;12.43;;
46653;SDS011;38960;51.074;17.004;2023-05-10T13:18:33;13.30;;;12.10;;
46653;SDS011;38960;51.074;17.004;2023-05-10T13:20:59;10.73;;;10.02;;
46653;SDS011;38960;51.074;17.004;2023-05-10T13:23:24;14.20;;;13.20;;
46653;SDS011;38960;51.074;17.004;2023-05-10T13:25:50;10.77;;;9.88;;
46653;SDS011;38960;51.074;17.004;2023-05-10T13:28:16;13.25;;;12.25;;
46653;SDS011;38960;51.074;17.004;2023-05-10T13:30:42;13.48;;;12.35;;
46653;SDS011;38960;51.074;17.004;2023-05-10T13:33:07;12.85;;;11.80;;
46653;SDS011;38960;51.074;17.004;2023-05-10T13:35:33;13.55;;;12.40;;
46653;SDS011;38960;51.074;17.004;2023-05-10T13:38:00;12.68;;;11.85;;
46653;SDS011;38960;51.074;17.004;2023-05-10T13:40:26;15.07;;;11.57;;
46653;SDS011;38960;51.074;17.004;2023-05-10T13:42:53;11.45;;;10.85;;
46653;SDS011;38960;51.074;17.004;2023-05-10T13:45:18;12.02;;;11.25;;
46653;SDS011;38960;51.074;17.004;2023-05-10T13:47:44;12.40;;;11.68;;
46653;SDS011;38960;51.074;17.004;2023-05-10T13:50:10;13.98;;;12.35;;
46653;SDS011;38960;51.074;17.004;2023-05-10T13:52:35;12.50;;;11.20;;
46653;SDS011;38960;51.074;17.004;2023-05-10T13:55:01;13.05;;;12.00;;
46653;SDS011;38960;51.074;17.004;2023-05-10T13:57:27;13.05;;;11.77;;
46653;SDS011;38960;51.074;17.004;2023-05-10T13:59:55;12.35;;;11.45;;
46653;SDS011;38960;51.074;17.004;2023-05-10T14:02:22;12.98;;;12.07;;
46653;SDS011;38960;51.074;17.004;2023-05-10T14:04:48;12.95;;;12.10;;
46653;SDS011;38960;51.074;17.004;2023-05-10T14:07:13;13.88;;;12.35;;
46653;SDS011;38960;51.074;17.004;2023-05-10T14:09:39;13.82;;;12.80;;
46653;SDS011;38960;51.074;17.004;2023-05-10T14:12:05;13.30;;;12.45;;
46653;SDS011;38960;51.074;17.004;2023-05-10T14:14:31;12.43;;;11.63;;
46653;SDS011;38960;51.074;17.004;2023-05-10T14:16:56;13.75;;;12.55;;
46653;SDS011;38960;51.074;17.004;2023-05-10T14:19:22;13.45;;;12.55;;
46653;SDS011;38960;51.074;17.004;2023-05-10T14:21:48;13.07;;;12.02;;
46653;SDS011;38960;51.074;17.004;2023-05-10T14:24:14;12.88;;;11.90;;
46653;SDS011;38960;51.074;17.004;2023-05-10T14:26:39;13.40;;;12.60;;
46653;SDS011;38960;51.074;17.004;2023-05-10T14:29:05;13.15;;;12.35;;
46653;SDS011;38960;51.074;17.004;2023-05-10T14:31:31;12.55;;;11.85;;
46653;SDS011;38960;51.074;17.004;2023-05-10T14:33:57;13.63;;;12.63;;
46653;SDS011;38960;51.074;17.004;2023-05-10T14:36:22;13.65;;;12.57;;
46653;SDS011;38960;51.074;17.004;2023-05-10T14:38:48;12.60;;;11.70;;
46653;SDS011;38960;51.074;17.004;2023-05-10T14:41:15;13.57;;;12.30;;
46653;SDS011;38960;51.074;17.004;2023-05-10T14:43:42;14.02;;;13.13;;
46653;SDS011;38960;51.074;17.004;2023-05-10T14:46:08;13.75;;;12.52;;
46653;SDS011;38960;51.074;17.004;2023-05-10T14:48:34;13.48;;;12.55;;
46653;SDS011;38960;51.074;17.004;2023-05-10T14:51:00;14.75;;;13.30;;